sensor_id;sensor_type;location;lat;lon;timestamp;temperature;humidity
6260;DHT22;3163;51.516;4.000;2023-07-13T00:01:50;22.50;99.90
6260;DHT22;3163;51.516;4.000;2023-07-13T00:04:22;22.50;99.90
6260;DHT22;3163;51.516;4.000;2023-07-13T00:06:48;22.50;99.90
6260;DHT22;3163;51.516;4.000;2023-07-13T00:09:16;22.40;99.90
6260;DHT22;3163;51.516;4.000;2023-07-13T00:11:43;22.50;99.90
6260;DHT22;3163;51.516;4.000;2023-07-13T00:14:10;22.50;99.90
6260;DHT22;3163;51.516;4.000;2023-07-13T00:16:37;22.50;99.90
6260;DHT22;3163;51.516;4.000;2023-07-13T00:19:04;22.40;99.90
6260;DHT22;3163;51.516;4.000;2023-07-13T00:21:30;22.40;99.90
6260;DHT22;3163;51.516;4.000;2023-07-13T00:23:57;22.30;99.90
6260;DHT22;3163;51.516;4.000;2023-07-13T00:26:23;22.30;99.90
6260;DHT22;3163;51.516;4.000;2023-07-13T00:28:48;22.30;99.90
6260;DHT22;3163;51.516;4.000;2023-07-13T00:31:14;22.30;99.90
6260;DHT22;3163;51.516;4.000;2023-07-13T00:33:41;22.40;99.90
6260;DHT22;3163;51.516;4.000;2023-07-13T00:36:09;22.40;99.90
6260;DHT22;3163;51.516;4.000;2023-07-13T00:38:35;22.40;99.90
6260;DHT22;3163;51.516;4.000;2023-07-13T00:41:02;22.30;99.90
6260;DHT22;3163;51.516;4.000;2023-07-13T00:43:29;22.30;99.90
6260;DHT22;3163;51.516;4.000;2023-07-13T00:48:27;22.30;99.90
6260;DHT22;3163;51.516;4.000;2023-07-13T00:50:57;22.20;99.90
6260;DHT22;3163;51.516;4.000;2023-07-13T00:53:25;22.30;99.90
6260;DHT22;3163;51.516;4.000;2023-07-13T00:55:51;22.30;99.90
6260;DHT22;3163;51.516;4.000;2023-07-13T00:58:19;22.20;99.90
6260;DHT22;3163;51.516;4.000;2023-07-13T01:00:46;22.20;99.90
6260;DHT22;3163;51.516;4.000;2023-07-13T01:03:12;22.30;99.90
6260;DHT22;3163;51.516;4.000;2023-07-13T01:05:38;22.30;99.90
6260;DHT22;3163;51.516;4.000;2023-07-13T01:08:04;22.20;99.90
6260;DHT22;3163;51.516;4.000;2023-07-13T01:10:31;22.20;99.90
6260;DHT22;3163;51.516;4.000;2023-07-13T01:13:07;22.10;99.90
6260;DHT22;3163;51.516;4.000;2023-07-13T01:15:42;22.20;99.90
6260;DHT22;3163;51.516;4.000;2023-07-13T01:18:17;22.10;99.90
6260;DHT22;3163;51.516;4.000;2023-07-13T01:21:01;22.20;99.90
6260;DHT22;3163;51.516;4.000;2023-07-13T01:23:28;22.10;99.90
6260;DHT22;3163;51.516;4.000;2023-07-13T01:25:54;22.10;99.90
6260;DHT22;3163;51.516;4.000;2023-07-13T01:28:21;22.10;99.90
6260;DHT22;3163;51.516;4.000;2023-07-13T01:30:47;22.10;99.90
6260;DHT22;3163;51.516;4.000;2023-07-13T01:33:15;22.10;99.90
6260;DHT22;3163;51.516;4.000;2023-07-13T01:35:43;22.10;99.90
6260;DHT22;3163;51.516;4.000;2023-07-13T01:38:09;22.10;99.90
6260;DHT22;3163;51.516;4.000;2023-07-13T01:40:36;22.10;99.90
6260;DHT22;3163;51.516;4.000;2023-07-13T01:43:02;22.10;99.90
6260;DHT22;3163;51.516;4.000;2023-07-13T01:45:28;22.10;99.90
6260;DHT22;3163;51.516;4.000;2023-07-13T01:47:54;22.10;99.90
6260;DHT22;3163;51.516;4.000;2023-07-13T01:50:21;22.10;99.90
6260;DHT22;3163;51.516;4.000;2023-07-13T01:52:47;22.10;99.90
6260;DHT22;3163;51.516;4.000;2023-07-13T01:55:13;22.10;99.90
6260;DHT22;3163;51.516;4.000;2023-07-13T01:57:39;22.10;99.90
6260;DHT22;3163;51.516;4.000;2023-07-13T02:00:06;22.10;99.90
6260;DHT22;3163;51.516;4.000;2023-07-13T02:02:33;22.10;99.90
6260;DHT22;3163;51.516;4.000;2023-07-13T02:04:58;22.00;99.90
6260;DHT22;3163;51.516;4.000;2023-07-13T02:07:24;22.00;99.90
6260;DHT22;3163;51.516;4.000;2023-07-13T02:09:50;22.00;99.90
6260;DHT22;3163;51.516;4.000;2023-07-13T02:12:15;22.00;99.90
6260;DHT22;3163;51.516;4.000;2023-07-13T02:14:41;22.00;99.90
6260;DHT22;3163;51.516;4.000;2023-07-13T02:17:09;22.00;99.90
6260;DHT22;3163;51.516;4.000;2023-07-13T02:19:35;22.00;99.90
6260;DHT22;3163;51.516;4.000;2023-07-13T02:22:02;21.90;99.90
6260;DHT22;3163;51.516;4.000;2023-07-13T02:24:28;22.00;99.90
6260;DHT22;3163;51.516;4.000;2023-07-13T02:26:53;22.00;99.90
6260;DHT22;3163;51.516;4.000;2023-07-13T02:29:19;21.90;99.90
6260;DHT22;3163;51.516;4.000;2023-07-13T02:31:45;21.90;99.90
6260;DHT22;3163;51.516;4.000;2023-07-13T02:34:11;21.80;99.90
6260;DHT22;3163;51.516;4.000;2023-07-13T02:36:36;21.70;99.90
6260;DHT22;3163;51.516;4.000;2023-07-13T02:39:04;21.80;99.90
6260;DHT22;3163;51.516;4.000;2023-07-13T02:41:30;21.80;99.90
6260;DHT22;3163;51.516;4.000;2023-07-13T02:43:58;21.90;99.90
6260;DHT22;3163;51.516;4.000;2023-07-13T02:46:32;21.80;99.90
6260;DHT22;3163;51.516;4.000;2023-07-13T02:48:57;21.80;99.90
6260;DHT22;3163;51.516;4.000;2023-07-13T02:51:23;21.80;99.90
6260;DHT22;3163;51.516;4.000;2023-07-13T02:53:49;21.90;99.90
6260;DHT22;3163;51.516;4.000;2023-07-13T02:56:14;21.80;99.90
6260;DHT22;3163;51.516;4.000;2023-07-13T02:58:40;21.70;99.90
6260;DHT22;3163;51.516;4.000;2023-07-13T03:01:08;21.70;99.90
6260;DHT22;3163;51.516;4.000;2023-07-13T03:03:34;21.80;99.90
6260;DHT22;3163;51.516;4.000;2023-07-13T03:06:02;21.80;99.90
6260;DHT22;3163;51.516;4.000;2023-07-13T03:08:28;21.80;99.90
6260;DHT22;3163;51.516;4.000;2023-07-13T03:11:06;21.70;99.90
6260;DHT22;3163;51.516;4.000;2023-07-13T03:13:32;21.80;99.90
6260;DHT22;3163;51.516;4.000;2023-07-13T03:15:58;21.70;99.90
6260;DHT22;3163;51.516;4.000;2023-07-13T03:18:27;21.70;99.90
6260;DHT22;3163;51.516;4.000;2023-07-13T03:20:53;21.80;99.90
6260;DHT22;3163;51.516;4.000;2023-07-13T03:23:20;21.70;99.90
6260;DHT22;3163;51.516;4.000;2023-07-13T03:25:46;21.80;99.90
6260;DHT22;3163;51.516;4.000;2023-07-13T03:28:12;21.80;99.90
6260;DHT22;3163;51.516;4.000;2023-07-13T03:30:38;21.80;99.90
6260;DHT22;3163;51.516;4.000;2023-07-13T03:33:04;21.80;99.90
6260;DHT22;3163;51.516;4.000;2023-07-13T03:35:30;21.80;99.90
6260;DHT22;3163;51.516;4.000;2023-07-13T03:37:58;21.80;99.90
6260;DHT22;3163;51.516;4.000;2023-07-13T03:40:25;21.70;99.90
6260;DHT22;3163;51.516;4.000;2023-07-13T03:42:52;21.80;99.90
6260;DHT22;3163;51.516;4.000;2023-07-13T03:45:18;21.80;99.90
6260;DHT22;3163;51.516;4.000;2023-07-13T03:47:44;21.70;99.90
6260;DHT22;3163;51.516;4.000;2023-07-13T03:50:10;21.70;99.90
6260;DHT22;3163;51.516;4.000;2023-07-13T03:52:36;21.60;99.90
6260;DHT22;3163;51.516;4.000;2023-07-13T03:55:01;21.80;99.90
6260;DHT22;3163;51.516;4.000;2023-07-13T03:57:27;21.70;99.90
6260;DHT22;3163;51.516;4.000;2023-07-13T03:59:53;21.60;99.90
6260;DHT22;3163;51.516;4.000;2023-07-13T04:02:18;21.70;99.90
6260;DHT22;3163;51.516;4.000;2023-07-13T04:04:44;21.80;99.90
6260;DHT22;3163;51.516;4.000;2023-07-13T04:07:10;21.80;99.90
6260;DHT22;3163;51.516;4.000;2023-07-13T04:09:36;21.80;99.90
6260;DHT22;3163;51.516;4.000;2023-07-13T04:12:02;21.80;99.90
6260;DHT22;3163;51.516;4.000;2023-07-13T04:14:28;21.90;99.90
6260;DHT22;3163;51.516;4.000;2023-07-13T04:16:54;21.90;99.90
6260;DHT22;3163;51.516;4.000;2023-07-13T04:19:22;21.90;99.90
6260;DHT22;3163;51.516;4.000;2023-07-13T04:21:48;22.00;99.90
6260;DHT22;3163;51.516;4.000;2023-07-13T04:24:14;22.00;99.90
6260;DHT22;3163;51.516;4.000;2023-07-13T04:26:40;21.90;99.90
6260;DHT22;3163;51.516;4.000;2023-07-13T04:29:06;22.00;99.90
6260;DHT22;3163;51.516;4.000;2023-07-13T04:31:32;22.10;99.90
6260;DHT22;3163;51.516;4.000;2023-07-13T04:33:58;22.00;99.90
6260;DHT22;3163;51.516;4.000;2023-07-13T04:36:25;22.10;99.90
6260;DHT22;3163;51.516;4.000;2023-07-13T04:38:53;22.10;99.90
6260;DHT22;3163;51.516;4.000;2023-07-13T04:41:20;22.00;99.90
6260;DHT22;3163;51.516;4.000;2023-07-13T04:43:47;22.10;99.90
6260;DHT22;3163;51.516;4.000;2023-07-13T04:46:15;22.10;99.90
6260;DHT22;3163;51.516;4.000;2023-07-13T04:48:42;22.10;99.90
6260;DHT22;3163;51.516;4.000;2023-07-13T04:51:08;22.20;99.90
6260;DHT22;3163;51.516;4.000;2023-07-13T04:53:34;22.20;99.90
6260;DHT22;3163;51.516;4.000;2023-07-13T04:56:00;22.20;99.90
6260;DHT22;3163;51.516;4.000;2023-07-13T04:58:27;22.20;99.90
6260;DHT22;3163;51.516;4.000;2023-07-13T05:00:53;22.00;99.90
6260;DHT22;3163;51.516;4.000;2023-07-13T05:03:19;22.10;99.90
6260;DHT22;3163;51.516;4.000;2023-07-13T05:05:58;22.10;99.90
6260;DHT22;3163;51.516;4.000;2023-07-13T05:08:24;22.20;99.90
6260;DHT22;3163;51.516;4.000;2023-07-13T05:10:51;22.30;99.90
6260;DHT22;3163;51.516;4.000;2023-07-13T05:13:17;22.30;99.90
6260;DHT22;3163;51.516;4.000;2023-07-13T05:15:43;22.20;99.90
6260;DHT22;3163;51.516;4.000;2023-07-13T05:18:08;22.20;99.90
6260;DHT22;3163;51.516;4.000;2023-07-13T05:20:34;22.20;99.90
6260;DHT22;3163;51.516;4.000;2023-07-13T05:22:59;22.20;99.90
6260;DHT22;3163;51.516;4.000;2023-07-13T05:25:25;22.20;99.90
6260;DHT22;3163;51.516;4.000;2023-07-13T05:27:51;22.30;99.90
6260;DHT22;3163;51.516;4.000;2023-07-13T05:30:16;22.30;99.90
6260;DHT22;3163;51.516;4.000;2023-07-13T05:32:42;22.30;99.90
6260;DHT22;3163;51.516;4.000;2023-07-13T05:35:08;22.30;99.90
6260;DHT22;3163;51.516;4.000;2023-07-13T05:37:34;22.30;99.90
6260;DHT22;3163;51.516;4.000;2023-07-13T05:40:00;22.40;99.90
6260;DHT22;3163;51.516;4.000;2023-07-13T05:42:25;22.30;99.90
6260;DHT22;3163;51.516;4.000;2023-07-13T05:44:51;22.20;99.90
6260;DHT22;3163;51.516;4.000;2023-07-13T05:47:17;22.20;99.90
6260;DHT22;3163;51.516;4.000;2023-07-13T05:49:42;22.20;99.90
6260;DHT22;3163;51.516;4.000;2023-07-13T05:52:08;22.30;99.90
6260;DHT22;3163;51.516;4.000;2023-07-13T05:54:34;22.40;99.90
6260;DHT22;3163;51.516;4.000;2023-07-13T05:56:59;22.30;99.90
6260;DHT22;3163;51.516;4.000;2023-07-13T05:59:25;22.40;99.90
6260;DHT22;3163;51.516;4.000;2023-07-13T06:01:51;22.30;99.90
6260;DHT22;3163;51.516;4.000;2023-07-13T06:04:18;22.30;99.90
6260;DHT22;3163;51.516;4.000;2023-07-13T06:06:44;22.40;99.90
6260;DHT22;3163;51.516;4.000;2023-07-13T06:09:10;22.40;99.90
6260;DHT22;3163;51.516;4.000;2023-07-13T06:11:35;22.50;99.90
6260;DHT22;3163;51.516;4.000;2023-07-13T06:14:01;22.60;99.90
6260;DHT22;3163;51.516;4.000;2023-07-13T06:16:27;22.60;99.90
6260;DHT22;3163;51.516;4.000;2023-07-13T06:18:53;22.50;99.90
6260;DHT22;3163;51.516;4.000;2023-07-13T06:21:20;22.50;99.90
6260;DHT22;3163;51.516;4.000;2023-07-13T06:23:48;22.60;99.90
6260;DHT22;3163;51.516;4.000;2023-07-13T06:26:14;22.50;99.90
6260;DHT22;3163;51.516;4.000;2023-07-13T06:28:40;22.50;99.90
6260;DHT22;3163;51.516;4.000;2023-07-13T06:31:07;22.50;99.90
6260;DHT22;3163;51.516;4.000;2023-07-13T06:33:33;22.60;99.90
6260;DHT22;3163;51.516;4.000;2023-07-13T06:35:59;22.40;99.90
6260;DHT22;3163;51.516;4.000;2023-07-13T06:38:25;22.50;99.90
6260;DHT22;3163;51.516;4.000;2023-07-13T06:40:51;22.60;99.90
6260;DHT22;3163;51.516;4.000;2023-07-13T06:43:16;22.50;99.90
6260;DHT22;3163;51.516;4.000;2023-07-13T06:45:45;22.50;99.90
6260;DHT22;3163;51.516;4.000;2023-07-13T06:48:13;22.70;99.90
6260;DHT22;3163;51.516;4.000;2023-07-13T06:50:39;22.80;99.90
6260;DHT22;3163;51.516;4.000;2023-07-13T06:53:05;22.90;99.90
6260;DHT22;3163;51.516;4.000;2023-07-13T06:55:30;22.70;99.90
6260;DHT22;3163;51.516;4.000;2023-07-13T06:57:57;22.70;99.90
6260;DHT22;3163;51.516;4.000;2023-07-13T07:00:22;22.70;99.90
6260;DHT22;3163;51.516;4.000;2023-07-13T07:02:48;22.60;99.90
6260;DHT22;3163;51.516;4.000;2023-07-13T07:05:14;22.60;99.90
6260;DHT22;3163;51.516;4.000;2023-07-13T07:07:39;22.70;99.90
6260;DHT22;3163;51.516;4.000;2023-07-13T07:10:06;22.70;99.90
6260;DHT22;3163;51.516;4.000;2023-07-13T07:12:31;22.80;99.90
6260;DHT22;3163;51.516;4.000;2023-07-13T07:14:57;22.90;99.90
6260;DHT22;3163;51.516;4.000;2023-07-13T07:17:23;23.10;99.90
6260;DHT22;3163;51.516;4.000;2023-07-13T07:19:48;23.10;99.90
6260;DHT22;3163;51.516;4.000;2023-07-13T07:22:14;22.90;99.90
6260;DHT22;3163;51.516;4.000;2023-07-13T07:24:40;22.80;99.90
6260;DHT22;3163;51.516;4.000;2023-07-13T07:27:06;22.90;99.90
6260;DHT22;3163;51.516;4.000;2023-07-13T07:29:31;22.90;99.90
6260;DHT22;3163;51.516;4.000;2023-07-13T07:31:59;23.00;99.90
6260;DHT22;3163;51.516;4.000;2023-07-13T07:34:25;23.10;99.90
6260;DHT22;3163;51.516;4.000;2023-07-13T07:36:51;23.20;99.90
6260;DHT22;3163;51.516;4.000;2023-07-13T07:39:16;23.30;99.90
6260;DHT22;3163;51.516;4.000;2023-07-13T07:41:42;23.40;99.90
6260;DHT22;3163;51.516;4.000;2023-07-13T07:44:08;23.30;99.90
6260;DHT22;3163;51.516;4.000;2023-07-13T07:46:35;23.50;99.90
6260;DHT22;3163;51.516;4.000;2023-07-13T07:49:01;23.40;99.90
6260;DHT22;3163;51.516;4.000;2023-07-13T07:51:27;23.30;99.90
6260;DHT22;3163;51.516;4.000;2023-07-13T07:53:54;23.30;99.90
6260;DHT22;3163;51.516;4.000;2023-07-13T07:56:19;23.40;99.90
6260;DHT22;3163;51.516;4.000;2023-07-13T07:58:45;23.30;99.90
6260;DHT22;3163;51.516;4.000;2023-07-13T08:01:11;23.40;99.90
6260;DHT22;3163;51.516;4.000;2023-07-13T08:03:36;23.40;99.90
6260;DHT22;3163;51.516;4.000;2023-07-13T08:06:02;23.60;99.90
6260;DHT22;3163;51.516;4.000;2023-07-13T08:08:28;23.60;99.90
6260;DHT22;3163;51.516;4.000;2023-07-13T08:10:54;23.70;99.90
6260;DHT22;3163;51.516;4.000;2023-07-13T08:13:20;23.80;99.90
6260;DHT22;3163;51.516;4.000;2023-07-13T08:15:46;24.00;99.90
6260;DHT22;3163;51.516;4.000;2023-07-13T08:18:12;23.80;99.90
6260;DHT22;3163;51.516;4.000;2023-07-13T08:20:39;23.70;99.90
6260;DHT22;3163;51.516;4.000;2023-07-13T08:23:05;23.60;99.90
6260;DHT22;3163;51.516;4.000;2023-07-13T08:25:30;23.60;99.90
6260;DHT22;3163;51.516;4.000;2023-07-13T08:27:56;23.80;99.90
6260;DHT22;3163;51.516;4.000;2023-07-13T08:30:22;24.10;99.90
6260;DHT22;3163;51.516;4.000;2023-07-13T08:32:48;24.20;99.90
6260;DHT22;3163;51.516;4.000;2023-07-13T08:35:15;24.10;99.90
6260;DHT22;3163;51.516;4.000;2023-07-13T08:37:41;24.30;99.50
6260;DHT22;3163;51.516;4.000;2023-07-13T08:40:10;24.20;99.60
6260;DHT22;3163;51.516;4.000;2023-07-13T08:42:44;24.40;99.10
6260;DHT22;3163;51.516;4.000;2023-07-13T08:45:28;24.40;99.20
6260;DHT22;3163;51.516;4.000;2023-07-13T08:48:03;24.00;99.90
6260;DHT22;3163;51.516;4.000;2023-07-13T08:50:35;23.90;99.90
6260;DHT22;3163;51.516;4.000;2023-07-13T08:53:04;24.00;99.90
6260;DHT22;3163;51.516;4.000;2023-07-13T08:55:34;24.30;99.80
6260;DHT22;3163;51.516;4.000;2023-07-13T08:58:12;24.70;98.10
6260;DHT22;3163;51.516;4.000;2023-07-13T09:01:19;24.80;97.60
6260;DHT22;3163;51.516;4.000;2023-07-13T09:03:55;25.00;96.80
6260;DHT22;3163;51.516;4.000;2023-07-13T09:06:31;25.20;96.40
6260;DHT22;3163;51.516;4.000;2023-07-13T09:11:45;25.40;95.60
6260;DHT22;3163;51.516;4.000;2023-07-13T09:16:37;24.90;94.90
6260;DHT22;3163;51.516;4.000;2023-07-13T09:19:07;25.30;95.10
6260;DHT22;3163;51.516;4.000;2023-07-13T09:21:41;25.20;95.20
6260;DHT22;3163;51.516;4.000;2023-07-13T09:24:34;25.30;95.00
6260;DHT22;3163;51.516;4.000;2023-07-13T09:27:08;25.40;94.40
6260;DHT22;3163;51.516;4.000;2023-07-13T09:29:37;25.90;93.30
6260;DHT22;3163;51.516;4.000;2023-07-13T09:32:12;26.00;93.00
6260;DHT22;3163;51.516;4.000;2023-07-13T09:34:40;26.00;92.80
6260;DHT22;3163;51.516;4.000;2023-07-13T09:37:05;26.30;92.40
6260;DHT22;3163;51.516;4.000;2023-07-13T09:39:38;26.10;92.70
6260;DHT22;3163;51.516;4.000;2023-07-13T09:42:27;25.50;93.90
6260;DHT22;3163;51.516;4.000;2023-07-13T09:44:56;25.10;95.50
6260;DHT22;3163;51.516;4.000;2023-07-13T09:47:27;25.20;95.50
6260;DHT22;3163;51.516;4.000;2023-07-13T09:50:03;25.70;93.90
6260;DHT22;3163;51.516;4.000;2023-07-13T09:52:41;26.20;92.90
6260;DHT22;3163;51.516;4.000;2023-07-13T09:55:35;26.30;92.30
6260;DHT22;3163;51.516;4.000;2023-07-13T10:00:41;26.40;92.10
6260;DHT22;3163;51.516;4.000;2023-07-13T10:03:20;26.50;91.90
6260;DHT22;3163;51.516;4.000;2023-07-13T10:05:49;26.50;91.80
6260;DHT22;3163;51.516;4.000;2023-07-13T10:08:29;26.30;92.20
6260;DHT22;3163;51.516;4.000;2023-07-13T10:11:10;25.90;92.80
6260;DHT22;3163;51.516;4.000;2023-07-13T10:13:40;25.70;94.00
6260;DHT22;3163;51.516;4.000;2023-07-13T10:16:07;26.00;93.40
6260;DHT22;3163;51.516;4.000;2023-07-13T10:18:42;26.50;92.20
6260;DHT22;3163;51.516;4.000;2023-07-13T10:21:14;26.80;91.50
6260;DHT22;3163;51.516;4.000;2023-07-13T10:23:41;26.80;91.40
6260;DHT22;3163;51.516;4.000;2023-07-13T10:26:14;26.80;91.30
6260;DHT22;3163;51.516;4.000;2023-07-13T10:28:41;27.00;90.70
6260;DHT22;3163;51.516;4.000;2023-07-13T10:31:13;26.90;91.00
6260;DHT22;3163;51.516;4.000;2023-07-13T10:33:39;27.10;90.50
6260;DHT22;3163;51.516;4.000;2023-07-13T10:36:13;26.90;91.00
6260;DHT22;3163;51.516;4.000;2023-07-13T10:38:40;26.50;91.80
6260;DHT22;3163;51.516;4.000;2023-07-13T10:41:11;26.80;91.40
6260;DHT22;3163;51.516;4.000;2023-07-13T10:43:43;27.50;89.20
6260;DHT22;3163;51.516;4.000;2023-07-13T10:46:16;27.40;88.10
6260;DHT22;3163;51.516;4.000;2023-07-13T10:48:46;27.30;89.80
6260;DHT22;3163;51.516;4.000;2023-07-13T10:51:18;27.10;86.90
6260;DHT22;3163;51.516;4.000;2023-07-13T10:53:47;27.50;86.80
6260;DHT22;3163;51.516;4.000;2023-07-13T10:56:30;27.80;83.70
6260;DHT22;3163;51.516;4.000;2023-07-13T10:59:12;27.70;84.10
6260;DHT22;3163;51.516;4.000;2023-07-13T11:04:25;28.10;83.20
6260;DHT22;3163;51.516;4.000;2023-07-13T11:06:56;27.60;85.40
6260;DHT22;3163;51.516;4.000;2023-07-13T11:09:34;28.00;84.90
6260;DHT22;3163;51.516;4.000;2023-07-13T11:12:07;28.00;84.30
6260;DHT22;3163;51.516;4.000;2023-07-13T11:14:37;28.00;84.50
6260;DHT22;3163;51.516;4.000;2023-07-13T11:20:22;28.00;80.00
6260;DHT22;3163;51.516;4.000;2023-07-13T11:23:08;27.80;83.60
6260;DHT22;3163;51.516;4.000;2023-07-13T11:25:35;26.20;81.80
6260;DHT22;3163;51.516;4.000;2023-07-13T11:30:40;26.10;86.00
6260;DHT22;3163;51.516;4.000;2023-07-13T11:36:12;26.40;84.40
6260;DHT22;3163;51.516;4.000;2023-07-13T11:38:51;26.40;85.40
6260;DHT22;3163;51.516;4.000;2023-07-13T11:41:36;26.70;85.40
6260;DHT22;3163;51.516;4.000;2023-07-13T11:46:36;26.90;85.80
6260;DHT22;3163;51.516;4.000;2023-07-13T11:49:05;26.80;87.20
6260;DHT22;3163;51.516;4.000;2023-07-13T11:51:35;26.80;86.80
6260;DHT22;3163;51.516;4.000;2023-07-13T11:54:13;26.70;87.30
6260;DHT22;3163;51.516;4.000;2023-07-13T11:56:40;26.60;87.40
6260;DHT22;3163;51.516;4.000;2023-07-13T11:59:08;26.10;90.00
6260;DHT22;3163;51.516;4.000;2023-07-13T12:01:44;25.70;91.30
6260;DHT22;3163;51.516;4.000;2023-07-13T12:04:28;25.70;91.90
6260;DHT22;3163;51.516;4.000;2023-07-13T12:07:15;26.10;91.00
6260;DHT22;3163;51.516;4.000;2023-07-13T12:09:43;26.30;90.60
6260;DHT22;3163;51.516;4.000;2023-07-13T12:12:14;26.50;90.20
6260;DHT22;3163;51.516;4.000;2023-07-13T12:14:40;26.50;90.30
6260;DHT22;3163;51.516;4.000;2023-07-13T12:17:22;26.50;90.50
6260;DHT22;3163;51.516;4.000;2023-07-13T12:19:49;26.50;90.60
6260;DHT22;3163;51.516;4.000;2023-07-13T12:22:17;26.50;90.70
6260;DHT22;3163;51.516;4.000;2023-07-13T12:24:44;26.40;90.90
6260;DHT22;3163;51.516;4.000;2023-07-13T12:27:21;25.90;92.00
6260;DHT22;3163;51.516;4.000;2023-07-13T12:29:56;25.80;92.70
6260;DHT22;3163;51.516;4.000;2023-07-13T12:32:24;26.10;92.10
6260;DHT22;3163;51.516;4.000;2023-07-13T12:35:17;26.20;91.80
6260;DHT22;3163;51.516;4.000;2023-07-13T12:37:46;26.30;91.70
6260;DHT22;3163;51.516;4.000;2023-07-13T12:40:17;26.40;91.30
6260;DHT22;3163;51.516;4.000;2023-07-13T12:42:46;26.70;90.50
6260;DHT22;3163;51.516;4.000;2023-07-13T12:45:18;26.70;90.50
6260;DHT22;3163;51.516;4.000;2023-07-13T12:48:04;26.90;90.20
6260;DHT22;3163;51.516;4.000;2023-07-13T12:50:42;27.10;89.70
6260;DHT22;3163;51.516;4.000;2023-07-13T12:53:20;27.00;89.70
6260;DHT22;3163;51.516;4.000;2023-07-13T12:55:49;27.10;89.60
6260;DHT22;3163;51.516;4.000;2023-07-13T12:58:30;27.40;88.60
6260;DHT22;3163;51.516;4.000;2023-07-13T13:00:59;27.70;87.00
6260;DHT22;3163;51.516;4.000;2023-07-13T13:03:33;27.80;86.40
6260;DHT22;3163;51.516;4.000;2023-07-13T13:08:34;28.10;85.70
6260;DHT22;3163;51.516;4.000;2023-07-13T13:11:01;28.10;85.50
6260;DHT22;3163;51.516;4.000;2023-07-13T13:13:27;28.10;85.60
6260;DHT22;3163;51.516;4.000;2023-07-13T13:15:53;28.20;85.40
6260;DHT22;3163;51.516;4.000;2023-07-13T13:18:21;28.30;84.80
6260;DHT22;3163;51.516;4.000;2023-07-13T13:20:48;28.10;85.50
6260;DHT22;3163;51.516;4.000;2023-07-13T13:23:15;27.80;86.40
6260;DHT22;3163;51.516;4.000;2023-07-13T13:25:47;28.10;86.00
6260;DHT22;3163;51.516;4.000;2023-07-13T13:28:19;28.20;85.50
6260;DHT22;3163;51.516;4.000;2023-07-13T13:30:47;28.40;84.90
6260;DHT22;3163;51.516;4.000;2023-07-13T13:33:16;28.30;84.50
6260;DHT22;3163;51.516;4.000;2023-07-13T13:35:43;28.40;84.30
6260;DHT22;3163;51.516;4.000;2023-07-13T13:38:14;28.60;83.60
6260;DHT22;3163;51.516;4.000;2023-07-13T13:40:42;28.60;83.80
6260;DHT22;3163;51.516;4.000;2023-07-13T13:45:41;28.50;83.90
6260;DHT22;3163;51.516;4.000;2023-07-13T13:48:16;28.50;83.60
6260;DHT22;3163;51.516;4.000;2023-07-13T13:50:42;28.50;84.20
6260;DHT22;3163;51.516;4.000;2023-07-13T13:53:12;28.60;83.60
6260;DHT22;3163;51.516;4.000;2023-07-13T13:55:41;28.80;82.90
6260;DHT22;3163;51.516;4.000;2023-07-13T13:58:10;28.90;82.40
6260;DHT22;3163;51.516;4.000;2023-07-13T14:00:37;29.00;82.30
6260;DHT22;3163;51.516;4.000;2023-07-13T14:03:04;28.80;83.00
6260;DHT22;3163;51.516;4.000;2023-07-13T14:05:29;28.80;82.50
6260;DHT22;3163;51.516;4.000;2023-07-13T14:07:55;28.90;82.60
6260;DHT22;3163;51.516;4.000;2023-07-13T14:10:25;28.70;83.10
6260;DHT22;3163;51.516;4.000;2023-07-13T14:12:53;28.70;83.10
6260;DHT22;3163;51.516;4.000;2023-07-13T14:17:48;28.60;83.60
6260;DHT22;3163;51.516;4.000;2023-07-13T14:20:19;28.60;83.80
6260;DHT22;3163;51.516;4.000;2023-07-13T14:22:45;28.60;83.70
6260;DHT22;3163;51.516;4.000;2023-07-13T14:25:12;28.60;83.70
6260;DHT22;3163;51.516;4.000;2023-07-13T14:27:39;28.50;84.40
6260;DHT22;3163;51.516;4.000;2023-07-13T14:30:25;28.60;84.10
6260;DHT22;3163;51.516;4.000;2023-07-13T14:32:50;28.40;84.70
6260;DHT22;3163;51.516;4.000;2023-07-13T14:35:19;28.40;84.30
6260;DHT22;3163;51.516;4.000;2023-07-13T14:37:47;28.50;84.70
6260;DHT22;3163;51.516;4.000;2023-07-13T14:40:23;28.40;82.80
6260;DHT22;3163;51.516;4.000;2023-07-13T14:42:50;28.40;84.80
6260;DHT22;3163;51.516;4.000;2023-07-13T14:45:17;28.30;85.30
6260;DHT22;3163;51.516;4.000;2023-07-13T14:47:44;28.30;85.30
6260;DHT22;3163;51.516;4.000;2023-07-13T14:50:22;28.40;85.10
6260;DHT22;3163;51.516;4.000;2023-07-13T14:52:48;28.20;85.40
6260;DHT22;3163;51.516;4.000;2023-07-13T14:55:17;28.30;84.20
6260;DHT22;3163;51.516;4.000;2023-07-13T14:57:43;28.30;85.10
6260;DHT22;3163;51.516;4.000;2023-07-13T15:00:13;28.10;85.90
6260;DHT22;3163;51.516;4.000;2023-07-13T15:02:47;28.10;86.00
6260;DHT22;3163;51.516;4.000;2023-07-13T15:05:17;28.00;85.80
6260;DHT22;3163;51.516;4.000;2023-07-13T15:07:43;28.00;86.50
6260;DHT22;3163;51.516;4.000;2023-07-13T15:10:21;27.90;87.40
6260;DHT22;3163;51.516;4.000;2023-07-13T15:12:47;28.10;86.90
6260;DHT22;3163;51.516;4.000;2023-07-13T15:15:14;28.10;86.60
6260;DHT22;3163;51.516;4.000;2023-07-13T15:17:45;28.10;86.90
6260;DHT22;3163;51.516;4.000;2023-07-13T15:22:51;28.00;87.30
6260;DHT22;3163;51.516;4.000;2023-07-13T15:25:19;28.10;87.00
6260;DHT22;3163;51.516;4.000;2023-07-13T15:27:45;27.80;87.70
6260;DHT22;3163;51.516;4.000;2023-07-13T15:30:12;27.70;88.20
6260;DHT22;3163;51.516;4.000;2023-07-13T15:32:38;27.90;87.50
6260;DHT22;3163;51.516;4.000;2023-07-13T15:35:08;27.80;87.90
6260;DHT22;3163;51.516;4.000;2023-07-13T15:37:38;27.60;88.80
6260;DHT22;3163;51.516;4.000;2023-07-13T15:40:04;27.50;88.40
6260;DHT22;3163;51.516;4.000;2023-07-13T15:42:30;27.70;89.00
6260;DHT22;3163;51.516;4.000;2023-07-13T15:44:56;27.60;88.70
6260;DHT22;3163;51.516;4.000;2023-07-13T15:47:21;27.50;89.30
6260;DHT22;3163;51.516;4.000;2023-07-13T15:49:47;27.70;89.20
6260;DHT22;3163;51.516;4.000;2023-07-13T15:52:22;27.40;83.80
6260;DHT22;3163;51.516;4.000;2023-07-13T15:54:48;27.50;89.70
6260;DHT22;3163;51.516;4.000;2023-07-13T15:57:14;27.40;90.00
6260;DHT22;3163;51.516;4.000;2023-07-13T15:59:41;27.40;90.10
6260;DHT22;3163;51.516;4.000;2023-07-13T16:02:18;27.40;89.50
6260;DHT22;3163;51.516;4.000;2023-07-13T16:04:45;27.20;90.60
6260;DHT22;3163;51.516;4.000;2023-07-13T16:07:13;27.20;90.80
6260;DHT22;3163;51.516;4.000;2023-07-13T16:09:40;27.20;90.70
6260;DHT22;3163;51.516;4.000;2023-07-13T16:12:13;27.30;90.10
6260;DHT22;3163;51.516;4.000;2023-07-13T16:14:40;27.30;90.50
6260;DHT22;3163;51.516;4.000;2023-07-13T16:17:13;26.70;77.90
6260;DHT22;3163;51.516;4.000;2023-07-13T16:19:40;26.50;88.60
6260;DHT22;3163;51.516;4.000;2023-07-13T16:22:16;26.70;90.20
6260;DHT22;3163;51.516;4.000;2023-07-13T16:24:43;26.80;89.30
6260;DHT22;3163;51.516;4.000;2023-07-13T16:27:11;26.90;86.00
6260;DHT22;3163;51.516;4.000;2023-07-13T16:29:38;26.70;86.60
6260;DHT22;3163;51.516;4.000;2023-07-13T16:32:13;26.70;87.50
6260;DHT22;3163;51.516;4.000;2023-07-13T16:34:41;26.80;87.60
6260;DHT22;3163;51.516;4.000;2023-07-13T16:37:18;26.90;87.50
6260;DHT22;3163;51.516;4.000;2023-07-13T16:39:50;26.80;88.60
6260;DHT22;3163;51.516;4.000;2023-07-13T16:42:18;26.60;88.80
6260;DHT22;3163;51.516;4.000;2023-07-13T16:44:44;26.50;89.30
6260;DHT22;3163;51.516;4.000;2023-07-13T16:47:13;26.60;89.80